<?xml version="1.0" encoding="UTF-8" standalone="no" ?>
<gpx xmlns="http://www.topografix.com/GPX/1/1" xmlns:xsi="http://www.w3.org/2001/XMLSchema-instance" xsi:schemaLocation="http://www.topografix.com/GPX/1/1 http://www.topografix.com/GPX/1/1/gpx.xsd" version="1.1" creator="VisuGPX - https://www.visugpx.com">
  <metadata>
    <name>Sortie côte 30092012</name>
    <desc><![CDATA[Running: parcours côte  \"saint-Cucufa\" 30092012]]></desc>
  </metadata>
  <trk>
    <name><![CDATA[Sortie côte 30092012_1]]></name>
    <trkseg>
      <trkpt lat="48.87355" lon="2.16319">
        <ele>27.9</ele>
        <time>2012-09-30T16:32:38Z</time>
      </trkpt>
      <trkpt lat="48.87355" lon="2.16319">
        <ele>77.2</ele>
        <time>2012-09-30T16:32:39Z</time>
      </trkpt>
      <trkpt lat="48.87339" lon="2.16336">
        <ele>77.2</ele>
        <time>2012-09-30T16:32:49Z</time>
      </trkpt>
      <trkpt lat="48.87325" lon="2.16361">
        <ele>77.6</ele>
        <time>2012-09-30T16:33:00Z</time>
      </trkpt>
      <trkpt lat="48.87322" lon="2.16407">
        <ele>79.2</ele>
        <time>2012-09-30T16:33:12Z</time>
      </trkpt>
      <trkpt lat="48.87333" lon="2.16431">
        <ele>79.1</ele>
        <time>2012-09-30T16:33:19Z</time>
      </trkpt>
      <trkpt lat="48.87353" lon="2.16465">
        <ele>78.9</ele>
        <time>2012-09-30T16:33:30Z</time>
      </trkpt>
      <trkpt lat="48.8737" lon="2.16503">
        <ele>80.5</ele>
        <time>2012-09-30T16:33:41Z</time>
      </trkpt>
      <trkpt lat="48.87386" lon="2.16534">
        <ele>81.3</ele>
        <time>2012-09-30T16:33:51Z</time>
      </trkpt>
      <trkpt lat="48.87407" lon="2.1656">
        <ele>86.1</ele>
        <time>2012-09-30T16:33:58Z</time>
      </trkpt>
      <trkpt lat="48.87417" lon="2.16577">
        <ele>86.3</ele>
        <time>2012-09-30T16:34:03Z</time>
      </trkpt>
      <trkpt lat="48.87428" lon="2.16593">
        <ele>85.6</ele>
        <time>2012-09-30T16:34:11Z</time>
      </trkpt>
      <trkpt lat="48.87451" lon="2.1653">
        <ele>82.6</ele>
        <time>2012-09-30T16:34:28Z</time>
      </trkpt>
      <trkpt lat="48.87461" lon="2.16516">
        <ele>81.7</ele>
        <time>2012-09-30T16:34:33Z</time>
      </trkpt>
      <trkpt lat="48.87474" lon="2.16502">
        <ele>80.1</ele>
        <time>2012-09-30T16:34:39Z</time>
      </trkpt>
      <trkpt lat="48.87495" lon="2.16481">
        <ele>78.6</ele>
        <time>2012-09-30T16:34:48Z</time>
      </trkpt>
      <trkpt lat="48.87519" lon="2.16479">
        <ele>78.7</ele>
        <time>2012-09-30T16:34:57Z</time>
      </trkpt>
      <trkpt lat="48.87541" lon="2.16498">
        <ele>78.9</ele>
        <time>2012-09-30T16:35:05Z</time>
      </trkpt>
      <trkpt lat="48.87556" lon="2.16501">
        <ele>79.2</ele>
        <time>2012-09-30T16:35:11Z</time>
      </trkpt>
      <trkpt lat="48.87568" lon="2.16468">
        <ele>78.3</ele>
        <time>2012-09-30T16:35:20Z</time>
      </trkpt>
      <trkpt lat="48.8758" lon="2.16434">
        <ele>77.4</ele>
        <time>2012-09-30T16:35:29Z</time>
      </trkpt>
      <trkpt lat="48.87586" lon="2.16421">
        <ele>77</ele>
        <time>2012-09-30T16:35:33Z</time>
      </trkpt>
      <trkpt lat="48.87599" lon="2.16386">
        <ele>77.3</ele>
        <time>2012-09-30T16:35:43Z</time>
      </trkpt>
      <trkpt lat="48.87611" lon="2.16353">
        <ele>78</ele>
        <time>2012-09-30T16:35:52Z</time>
      </trkpt>
      <trkpt lat="48.87621" lon="2.16325">
        <ele>78.2</ele>
        <time>2012-09-30T16:35:59Z</time>
      </trkpt>
      <trkpt lat="48.87638" lon="2.16299">
        <ele>77.1</ele>
        <time>2012-09-30T16:36:08Z</time>
      </trkpt>
      <trkpt lat="48.87656" lon="2.1627">
        <ele>77.3</ele>
        <time>2012-09-30T16:36:17Z</time>
      </trkpt>
      <trkpt lat="48.87667" lon="2.16256">
        <ele>77.4</ele>
        <time>2012-09-30T16:36:22Z</time>
      </trkpt>
      <trkpt lat="48.87674" lon="2.16238">
        <ele>76.8</ele>
        <time>2012-09-30T16:36:27Z</time>
      </trkpt>
      <trkpt lat="48.87693" lon="2.16206">
        <ele>77.6</ele>
        <time>2012-09-30T16:36:37Z</time>
      </trkpt>
      <trkpt lat="48.87705" lon="2.1617">
        <ele>78.2</ele>
        <time>2012-09-30T16:36:47Z</time>
      </trkpt>
      <trkpt lat="48.877" lon="2.16139">
        <ele>78.6</ele>
        <time>2012-09-30T16:36:55Z</time>
      </trkpt>
      <trkpt lat="48.87685" lon="2.16123">
        <ele>78.6</ele>
        <time>2012-09-30T16:37:01Z</time>
      </trkpt>
      <trkpt lat="48.87668" lon="2.16104">
        <ele>78.2</ele>
        <time>2012-09-30T16:37:08Z</time>
      </trkpt>
      <trkpt lat="48.87645" lon="2.16082">
        <ele>77.9</ele>
        <time>2012-09-30T16:37:17Z</time>
      </trkpt>
      <trkpt lat="48.87623" lon="2.16061">
        <ele>77</ele>
        <time>2012-09-30T16:37:26Z</time>
      </trkpt>
      <trkpt lat="48.87603" lon="2.16037">
        <ele>77</ele>
        <time>2012-09-30T16:37:36Z</time>
      </trkpt>
      <trkpt lat="48.87583" lon="2.16012">
        <ele>75.7</ele>
        <time>2012-09-30T16:37:44Z</time>
      </trkpt>
      <trkpt lat="48.87568" lon="2.15993">
        <ele>76</ele>
        <time>2012-09-30T16:37:51Z</time>
      </trkpt>
      <trkpt lat="48.87547" lon="2.15971">
        <ele>76.3</ele>
        <time>2012-09-30T16:38:00Z</time>
      </trkpt>
      <trkpt lat="48.87531" lon="2.15956">
        <ele>75.7</ele>
        <time>2012-09-30T16:38:08Z</time>
      </trkpt>
      <trkpt lat="48.87512" lon="2.15917">
        <ele>74.7</ele>
        <time>2012-09-30T16:38:19Z</time>
      </trkpt>
      <trkpt lat="48.875" lon="2.15889">
        <ele>75</ele>
        <time>2012-09-30T16:38:27Z</time>
      </trkpt>
      <trkpt lat="48.87482" lon="2.15855">
        <ele>74.4</ele>
        <time>2012-09-30T16:38:37Z</time>
      </trkpt>
      <trkpt lat="48.87466" lon="2.15828">
        <ele>73.8</ele>
        <time>2012-09-30T16:38:45Z</time>
      </trkpt>
      <trkpt lat="48.8745" lon="2.15794">
        <ele>73.8</ele>
        <time>2012-09-30T16:38:55Z</time>
      </trkpt>
      <trkpt lat="48.87434" lon="2.15765">
        <ele>73.6</ele>
        <time>2012-09-30T16:39:04Z</time>
      </trkpt>
      <trkpt lat="48.87424" lon="2.15744">
        <ele>73.7</ele>
        <time>2012-09-30T16:39:10Z</time>
      </trkpt>
      <trkpt lat="48.87413" lon="2.15729">
        <ele>74</ele>
        <time>2012-09-30T16:39:15Z</time>
      </trkpt>
      <trkpt lat="48.87398" lon="2.15709">
        <ele>73.9</ele>
        <time>2012-09-30T16:39:22Z</time>
      </trkpt>
      <trkpt lat="48.8738" lon="2.15715">
        <ele>74.3</ele>
        <time>2012-09-30T16:39:32Z</time>
      </trkpt>
      <trkpt lat="48.87352" lon="2.1573">
        <ele>74.7</ele>
        <time>2012-09-30T16:39:43Z</time>
      </trkpt>
      <trkpt lat="48.87333" lon="2.1573">
        <ele>75.3</ele>
        <time>2012-09-30T16:39:50Z</time>
      </trkpt>
      <trkpt lat="48.87307" lon="2.1573">
        <ele>75.8</ele>
        <time>2012-09-30T16:39:59Z</time>
      </trkpt>
      <trkpt lat="48.87294" lon="2.15737">
        <ele>76.7</ele>
        <time>2012-09-30T16:40:04Z</time>
      </trkpt>
      <trkpt lat="48.87279" lon="2.15771">
        <ele>76.2</ele>
        <time>2012-09-30T16:40:14Z</time>
      </trkpt>
      <trkpt lat="48.87259" lon="2.15793">
        <ele>76.3</ele>
        <time>2012-09-30T16:40:23Z</time>
      </trkpt>
      <trkpt lat="48.87237" lon="2.15801">
        <ele>75.4</ele>
        <time>2012-09-30T16:40:31Z</time>
      </trkpt>
      <trkpt lat="48.87217" lon="2.15811">
        <ele>73.8</ele>
        <time>2012-09-30T16:40:38Z</time>
      </trkpt>
      <trkpt lat="48.87197" lon="2.15821">
        <ele>74.5</ele>
        <time>2012-09-30T16:40:45Z</time>
      </trkpt>
      <trkpt lat="48.87175" lon="2.15839">
        <ele>74.9</ele>
        <time>2012-09-30T16:40:54Z</time>
      </trkpt>
      <trkpt lat="48.87157" lon="2.15857">
        <ele>75.4</ele>
        <time>2012-09-30T16:41:03Z</time>
      </trkpt>
      <trkpt lat="48.87134" lon="2.15882">
        <ele>75.1</ele>
        <time>2012-09-30T16:41:14Z</time>
      </trkpt>
      <trkpt lat="48.87127" lon="2.15889">
        <ele>75.3</ele>
        <time>2012-09-30T16:41:17Z</time>
      </trkpt>
      <trkpt lat="48.87109" lon="2.15908">
        <ele>76.2</ele>
        <time>2012-09-30T16:41:26Z</time>
      </trkpt>
      <trkpt lat="48.87085" lon="2.15925">
        <ele>77.2</ele>
        <time>2012-09-30T16:41:37Z</time>
      </trkpt>
      <trkpt lat="48.87064" lon="2.15929">
        <ele>78.4</ele>
        <time>2012-09-30T16:41:45Z</time>
      </trkpt>
      <trkpt lat="48.87034" lon="2.1593">
        <ele>79.6</ele>
        <time>2012-09-30T16:41:56Z</time>
      </trkpt>
      <trkpt lat="48.87009" lon="2.1591">
        <ele>79.3</ele>
        <time>2012-09-30T16:42:06Z</time>
      </trkpt>
      <trkpt lat="48.86994" lon="2.15891">
        <ele>79.5</ele>
        <time>2012-09-30T16:42:13Z</time>
      </trkpt>
      <trkpt lat="48.86976" lon="2.15866">
        <ele>79.7</ele>
        <time>2012-09-30T16:42:22Z</time>
      </trkpt>
      <trkpt lat="48.86947" lon="2.15866">
        <ele>78.8</ele>
        <time>2012-09-30T16:42:33Z</time>
      </trkpt>
      <trkpt lat="48.86934" lon="2.15894">
        <ele>78.2</ele>
        <time>2012-09-30T16:42:42Z</time>
      </trkpt>
      <trkpt lat="48.86924" lon="2.1592">
        <ele>79</ele>
        <time>2012-09-30T16:42:51Z</time>
      </trkpt>
      <trkpt lat="48.8692" lon="2.15963">
        <ele>79.5</ele>
        <time>2012-09-30T16:43:02Z</time>
      </trkpt>
      <trkpt lat="48.86916" lon="2.16005">
        <ele>80.8</ele>
        <time>2012-09-30T16:43:14Z</time>
      </trkpt>
      <trkpt lat="48.86917" lon="2.16053">
        <ele>81.4</ele>
        <time>2012-09-30T16:43:26Z</time>
      </trkpt>
      <trkpt lat="48.86914" lon="2.16083">
        <ele>82.1</ele>
        <time>2012-09-30T16:43:33Z</time>
      </trkpt>
      <trkpt lat="48.86909" lon="2.16115">
        <ele>82.7</ele>
        <time>2012-09-30T16:43:43Z</time>
      </trkpt>
      <trkpt lat="48.86901" lon="2.16159">
        <ele>83.5</ele>
        <time>2012-09-30T16:43:54Z</time>
      </trkpt>
      <trkpt lat="48.86899" lon="2.16198">
        <ele>84</ele>
        <time>2012-09-30T16:44:03Z</time>
      </trkpt>
      <trkpt lat="48.86885" lon="2.1623">
        <ele>85.5</ele>
        <time>2012-09-30T16:44:13Z</time>
      </trkpt>
      <trkpt lat="48.86858" lon="2.16231">
        <ele>86.4</ele>
        <time>2012-09-30T16:44:24Z</time>
      </trkpt>
      <trkpt lat="48.86834" lon="2.1622">
        <ele>87.4</ele>
        <time>2012-09-30T16:44:33Z</time>
      </trkpt>
      <trkpt lat="48.86812" lon="2.1621">
        <ele>87.5</ele>
        <time>2012-09-30T16:44:43Z</time>
      </trkpt>
      <trkpt lat="48.86796" lon="2.1619">
        <ele>88.6</ele>
        <time>2012-09-30T16:44:53Z</time>
      </trkpt>
      <trkpt lat="48.86781" lon="2.1617">
        <ele>89.7</ele>
        <time>2012-09-30T16:45:02Z</time>
      </trkpt>
      <trkpt lat="48.86766" lon="2.16143">
        <ele>91.8</ele>
        <time>2012-09-30T16:45:14Z</time>
      </trkpt>
      <trkpt lat="48.86752" lon="2.16123">
        <ele>93.1</ele>
        <time>2012-09-30T16:45:25Z</time>
      </trkpt>
      <trkpt lat="48.86738" lon="2.16089">
        <ele>94.4</ele>
        <time>2012-09-30T16:45:38Z</time>
      </trkpt>
      <trkpt lat="48.86723" lon="2.16063">
        <ele>96.9</ele>
        <time>2012-09-30T16:45:50Z</time>
      </trkpt>
      <trkpt lat="48.86708" lon="2.16043">
        <ele>98.1</ele>
        <time>2012-09-30T16:45:59Z</time>
      </trkpt>
      <trkpt lat="48.86694" lon="2.16046">
        <ele>99.5</ele>
        <time>2012-09-30T16:46:05Z</time>
      </trkpt>
      <trkpt lat="48.86678" lon="2.16058">
        <ele>101.2</ele>
        <time>2012-09-30T16:46:13Z</time>
      </trkpt>
      <trkpt lat="48.86658" lon="2.1608">
        <ele>102.5</ele>
        <time>2012-09-30T16:46:22Z</time>
      </trkpt>
      <trkpt lat="48.86639" lon="2.16096">
        <ele>105.2</ele>
        <time>2012-09-30T16:46:31Z</time>
      </trkpt>
      <trkpt lat="48.8662" lon="2.16109">
        <ele>105.5</ele>
        <time>2012-09-30T16:46:39Z</time>
      </trkpt>
      <trkpt lat="48.86596" lon="2.16123">
        <ele>106.9</ele>
        <time>2012-09-30T16:46:49Z</time>
      </trkpt>
      <trkpt lat="48.86577" lon="2.16137">
        <ele>108.5</ele>
        <time>2012-09-30T16:46:57Z</time>
      </trkpt>
      <trkpt lat="48.86554" lon="2.16144">
        <ele>110.2</ele>
        <time>2012-09-30T16:47:07Z</time>
      </trkpt>
      <trkpt lat="48.86545" lon="2.16135">
        <ele>110.8</ele>
        <time>2012-09-30T16:47:12Z</time>
      </trkpt>
      <trkpt lat="48.86538" lon="2.16122">
        <ele>111.7</ele>
        <time>2012-09-30T16:47:19Z</time>
      </trkpt>
      <trkpt lat="48.86532" lon="2.16108">
        <ele>112.1</ele>
        <time>2012-09-30T16:47:26Z</time>
      </trkpt>
      <trkpt lat="48.86511" lon="2.1608">
        <ele>114.2</ele>
        <time>2012-09-30T16:47:40Z</time>
      </trkpt>
      <trkpt lat="48.86503" lon="2.16066">
        <ele>114.9</ele>
        <time>2012-09-30T16:47:46Z</time>
      </trkpt>
      <trkpt lat="48.86493" lon="2.16048">
        <ele>116.5</ele>
        <time>2012-09-30T16:47:54Z</time>
      </trkpt>
      <trkpt lat="48.86483" lon="2.16046">
        <ele>117.1</ele>
        <time>2012-09-30T16:48:02Z</time>
      </trkpt>
      <trkpt lat="48.86462" lon="2.16051">
        <ele>120.9</ele>
        <time>2012-09-30T16:48:15Z</time>
      </trkpt>
      <trkpt lat="48.86437" lon="2.16042">
        <ele>124</ele>
        <time>2012-09-30T16:48:29Z</time>
      </trkpt>
      <trkpt lat="48.8642" lon="2.16056">
        <ele>126</ele>
        <time>2012-09-30T16:48:40Z</time>
      </trkpt>
      <trkpt lat="48.86406" lon="2.16074">
        <ele>127.4</ele>
        <time>2012-09-30T16:48:49Z</time>
      </trkpt>
      <trkpt lat="48.86385" lon="2.16109">
        <ele>129.8</ele>
        <time>2012-09-30T16:49:04Z</time>
      </trkpt>
      <trkpt lat="48.86368" lon="2.16115">
        <ele>131.5</ele>
        <time>2012-09-30T16:49:11Z</time>
      </trkpt>
      <trkpt lat="48.86355" lon="2.16108">
        <ele>132.4</ele>
        <time>2012-09-30T16:49:16Z</time>
      </trkpt>
      <trkpt lat="48.86336" lon="2.16085">
        <ele>136.2</ele>
        <time>2012-09-30T16:49:26Z</time>
      </trkpt>
      <trkpt lat="48.86317" lon="2.16059">
        <ele>137.8</ele>
        <time>2012-09-30T16:49:36Z</time>
      </trkpt>
      <trkpt lat="48.863" lon="2.16038">
        <ele>138.4</ele>
        <time>2012-09-30T16:49:45Z</time>
      </trkpt>
      <trkpt lat="48.8628" lon="2.1601">
        <ele>139.1</ele>
        <time>2012-09-30T16:49:55Z</time>
      </trkpt>
      <trkpt lat="48.86272" lon="2.15996">
        <ele>139.5</ele>
        <time>2012-09-30T16:50:00Z</time>
      </trkpt>
      <trkpt lat="48.86253" lon="2.15974">
        <ele>140.2</ele>
        <time>2012-09-30T16:50:09Z</time>
      </trkpt>
      <trkpt lat="48.86236" lon="2.15953">
        <ele>141.7</ele>
        <time>2012-09-30T16:50:19Z</time>
      </trkpt>
      <trkpt lat="48.86215" lon="2.1593">
        <ele>143</ele>
        <time>2012-09-30T16:50:30Z</time>
      </trkpt>
      <trkpt lat="48.86201" lon="2.15912">
        <ele>144.4</ele>
        <time>2012-09-30T16:50:38Z</time>
      </trkpt>
      <trkpt lat="48.86183" lon="2.15885">
        <ele>145.2</ele>
        <time>2012-09-30T16:50:48Z</time>
      </trkpt>
      <trkpt lat="48.86166" lon="2.15866">
        <ele>145.6</ele>
        <time>2012-09-30T16:50:57Z</time>
      </trkpt>
      <trkpt lat="48.86152" lon="2.15845">
        <ele>147</ele>
        <time>2012-09-30T16:51:06Z</time>
      </trkpt>
      <trkpt lat="48.86132" lon="2.15832">
        <ele>148.6</ele>
        <time>2012-09-30T16:51:16Z</time>
      </trkpt>
      <trkpt lat="48.86111" lon="2.1581">
        <ele>150.2</ele>
        <time>2012-09-30T16:51:27Z</time>
      </trkpt>
      <trkpt lat="48.86094" lon="2.15787">
        <ele>152.3</ele>
        <time>2012-09-30T16:51:38Z</time>
      </trkpt>
      <trkpt lat="48.86071" lon="2.15771">
        <ele>153.9</ele>
        <time>2012-09-30T16:51:50Z</time>
      </trkpt>
      <trkpt lat="48.86056" lon="2.15736">
        <ele>155.6</ele>
        <time>2012-09-30T16:52:01Z</time>
      </trkpt>
      <trkpt lat="48.86038" lon="2.15707">
        <ele>154.5</ele>
        <time>2012-09-30T16:52:12Z</time>
      </trkpt>
      <trkpt lat="48.86013" lon="2.15678">
        <ele>155.2</ele>
        <time>2012-09-30T16:52:24Z</time>
      </trkpt>
      <trkpt lat="48.85999" lon="2.15661">
        <ele>156.3</ele>
        <time>2012-09-30T16:52:32Z</time>
      </trkpt>
      <trkpt lat="48.85978" lon="2.15634">
        <ele>158.4</ele>
        <time>2012-09-30T16:52:44Z</time>
      </trkpt>
      <trkpt lat="48.85957" lon="2.15604">
        <ele>158.4</ele>
        <time>2012-09-30T16:52:54Z</time>
      </trkpt>
      <trkpt lat="48.85947" lon="2.15585">
        <ele>159.1</ele>
        <time>2012-09-30T16:53:01Z</time>
      </trkpt>
      <trkpt lat="48.85928" lon="2.15556">
        <ele>160.3</ele>
        <time>2012-09-30T16:53:11Z</time>
      </trkpt>
      <trkpt lat="48.85917" lon="2.1553">
        <ele>161.5</ele>
        <time>2012-09-30T16:53:20Z</time>
      </trkpt>
      <trkpt lat="48.859" lon="2.15504">
        <ele>163</ele>
        <time>2012-09-30T16:53:30Z</time>
      </trkpt>
      <trkpt lat="48.85884" lon="2.15482">
        <ele>164.4</ele>
        <time>2012-09-30T16:53:40Z</time>
      </trkpt>
      <trkpt lat="48.85875" lon="2.15469">
        <ele>165.3</ele>
        <time>2012-09-30T16:53:46Z</time>
      </trkpt>
      <trkpt lat="48.85866" lon="2.15452">
        <ele>166.4</ele>
        <time>2012-09-30T16:53:53Z</time>
      </trkpt>
      <trkpt lat="48.85849" lon="2.15428">
        <ele>168.2</ele>
        <time>2012-09-30T16:54:02Z</time>
      </trkpt>
      <trkpt lat="48.85837" lon="2.15439">
        <ele>169.3</ele>
        <time>2012-09-30T16:54:12Z</time>
      </trkpt>
      <trkpt lat="48.85827" lon="2.15478">
        <ele>170.7</ele>
        <time>2012-09-30T16:54:24Z</time>
      </trkpt>
      <trkpt lat="48.85816" lon="2.15514">
        <ele>173.1</ele>
        <time>2012-09-30T16:54:36Z</time>
      </trkpt>
      <trkpt lat="48.85811" lon="2.15546">
        <ele>174.6</ele>
        <time>2012-09-30T16:54:46Z</time>
      </trkpt>
      <trkpt lat="48.85806" lon="2.1557">
        <ele>175.3</ele>
        <time>2012-09-30T16:54:53Z</time>
      </trkpt>
      <trkpt lat="48.85793" lon="2.15602">
        <ele>177.1</ele>
        <time>2012-09-30T16:55:02Z</time>
      </trkpt>
      <trkpt lat="48.85783" lon="2.15633">
        <ele>177.6</ele>
        <time>2012-09-30T16:55:10Z</time>
      </trkpt>
      <trkpt lat="48.85781" lon="2.15649">
        <ele>177.8</ele>
        <time>2012-09-30T16:55:15Z</time>
      </trkpt>
      <trkpt lat="48.85771" lon="2.1569">
        <ele>178.8</ele>
        <time>2012-09-30T16:55:26Z</time>
      </trkpt>
      <trkpt lat="48.85761" lon="2.15723">
        <ele>178.4</ele>
        <time>2012-09-30T16:55:35Z</time>
      </trkpt>
      <trkpt lat="48.85752" lon="2.15751">
        <ele>177.5</ele>
        <time>2012-09-30T16:55:42Z</time>
      </trkpt>
      <trkpt lat="48.85743" lon="2.15784">
        <ele>177.7</ele>
        <time>2012-09-30T16:55:51Z</time>
      </trkpt>
      <trkpt lat="48.85735" lon="2.15826">
        <ele>178.2</ele>
        <time>2012-09-30T16:55:59Z</time>
      </trkpt>
      <trkpt lat="48.85731" lon="2.15853">
        <ele>178.8</ele>
        <time>2012-09-30T16:56:06Z</time>
      </trkpt>
      <trkpt lat="48.85718" lon="2.15893">
        <ele>178.7</ele>
        <time>2012-09-30T16:56:17Z</time>
      </trkpt>
      <trkpt lat="48.85705" lon="2.1593">
        <ele>178.6</ele>
        <time>2012-09-30T16:56:27Z</time>
      </trkpt>
      <trkpt lat="48.85698" lon="2.15957">
        <ele>177.9</ele>
        <time>2012-09-30T16:56:33Z</time>
      </trkpt>
      <trkpt lat="48.85691" lon="2.15978">
        <ele>177.4</ele>
        <time>2012-09-30T16:56:38Z</time>
      </trkpt>
      <trkpt lat="48.85684" lon="2.16001">
        <ele>176.5</ele>
        <time>2012-09-30T16:56:45Z</time>
      </trkpt>
      <trkpt lat="48.85679" lon="2.1602">
        <ele>176.1</ele>
        <time>2012-09-30T16:56:53Z</time>
      </trkpt>
      <trkpt lat="48.85662" lon="2.1606">
        <ele>177</ele>
        <time>2012-09-30T16:57:05Z</time>
      </trkpt>
      <trkpt lat="48.85649" lon="2.16097">
        <ele>176.5</ele>
        <time>2012-09-30T16:57:15Z</time>
      </trkpt>
      <trkpt lat="48.85645" lon="2.16114">
        <ele>177.5</ele>
        <time>2012-09-30T16:57:20Z</time>
      </trkpt>
      <trkpt lat="48.85634" lon="2.16157">
        <ele>179.2</ele>
        <time>2012-09-30T16:57:34Z</time>
      </trkpt>
      <trkpt lat="48.85622" lon="2.16199">
        <ele>180.3</ele>
        <time>2012-09-30T16:57:47Z</time>
      </trkpt>
      <trkpt lat="48.85615" lon="2.1622">
        <ele>179.8</ele>
        <time>2012-09-30T16:57:53Z</time>
      </trkpt>
      <trkpt lat="48.8561" lon="2.16241">
        <ele>180.4</ele>
        <time>2012-09-30T16:57:59Z</time>
      </trkpt>
      <trkpt lat="48.85605" lon="2.1626">
        <ele>179.9</ele>
        <time>2012-09-30T16:58:04Z</time>
      </trkpt>
      <trkpt lat="48.85602" lon="2.16296">
        <ele>179.2</ele>
        <time>2012-09-30T16:58:13Z</time>
      </trkpt>
      <trkpt lat="48.85591" lon="2.16328">
        <ele>178.5</ele>
        <time>2012-09-30T16:58:21Z</time>
      </trkpt>
      <trkpt lat="48.8558" lon="2.16365">
        <ele>177.7</ele>
        <time>2012-09-30T16:58:31Z</time>
      </trkpt>
      <trkpt lat="48.85566" lon="2.16394">
        <ele>177.4</ele>
        <time>2012-09-30T16:58:39Z</time>
      </trkpt>
      <trkpt lat="48.85554" lon="2.16427">
        <ele>176.7</ele>
        <time>2012-09-30T16:58:47Z</time>
      </trkpt>
      <trkpt lat="48.85551" lon="2.16439">
        <ele>176.3</ele>
        <time>2012-09-30T16:58:50Z</time>
      </trkpt>
      <trkpt lat="48.85539" lon="2.1647">
        <ele>175.2</ele>
        <time>2012-09-30T16:58:59Z</time>
      </trkpt>
      <trkpt lat="48.85532" lon="2.16496">
        <ele>173.5</ele>
        <time>2012-09-30T16:59:05Z</time>
      </trkpt>
      <trkpt lat="48.85526" lon="2.16522">
        <ele>173.8</ele>
        <time>2012-09-30T16:59:13Z</time>
      </trkpt>
      <trkpt lat="48.85514" lon="2.16556">
        <ele>173.4</ele>
        <time>2012-09-30T16:59:23Z</time>
      </trkpt>
      <trkpt lat="48.85496" lon="2.16567">
        <ele>174</ele>
        <time>2012-09-30T16:59:33Z</time>
      </trkpt>
      <trkpt lat="48.85468" lon="2.16558">
        <ele>173.9</ele>
        <time>2012-09-30T16:59:45Z</time>
      </trkpt>
      <trkpt lat="48.85459" lon="2.16551">
        <ele>174.2</ele>
        <time>2012-09-30T16:59:50Z</time>
      </trkpt>
      <trkpt lat="48.85435" lon="2.16531">
        <ele>172</ele>
        <time>2012-09-30T17:00:01Z</time>
      </trkpt>
      <trkpt lat="48.85422" lon="2.16515">
        <ele>172.6</ele>
        <time>2012-09-30T17:00:09Z</time>
      </trkpt>
      <trkpt lat="48.85401" lon="2.16494">
        <ele>173.4</ele>
        <time>2012-09-30T17:00:20Z</time>
      </trkpt>
      <trkpt lat="48.85374" lon="2.16474">
        <ele>174</ele>
        <time>2012-09-30T17:00:30Z</time>
      </trkpt>
      <trkpt lat="48.85357" lon="2.1646">
        <ele>174.1</ele>
        <time>2012-09-30T17:00:37Z</time>
      </trkpt>
      <trkpt lat="48.85333" lon="2.16443">
        <ele>174.9</ele>
        <time>2012-09-30T17:00:47Z</time>
      </trkpt>
      <trkpt lat="48.85312" lon="2.1644">
        <ele>175.3</ele>
        <time>2012-09-30T17:00:57Z</time>
      </trkpt>
      <trkpt lat="48.85275" lon="2.16418">
        <ele>176</ele>
        <time>2012-09-30T17:01:11Z</time>
      </trkpt>
      <trkpt lat="48.85264" lon="2.16411">
        <ele>176.4</ele>
        <time>2012-09-30T17:01:15Z</time>
      </trkpt>
      <trkpt lat="48.85241" lon="2.16397">
        <ele>177.5</ele>
        <time>2012-09-30T17:01:25Z</time>
      </trkpt>
      <trkpt lat="48.85221" lon="2.1639">
        <ele>178.9</ele>
        <time>2012-09-30T17:01:35Z</time>
      </trkpt>
      <trkpt lat="48.852" lon="2.16388">
        <ele>180</ele>
        <time>2012-09-30T17:01:44Z</time>
      </trkpt>
      <trkpt lat="48.852" lon="2.16388">
        <ele>180</ele>
        <time>2012-09-30T17:01:51Z</time>
      </trkpt>
      <trkpt lat="48.85206" lon="2.16415">
        <ele>182.1</ele>
        <time>2012-09-30T17:01:58Z</time>
      </trkpt>
      <trkpt lat="48.85207" lon="2.16432">
        <ele>183.1</ele>
        <time>2012-09-30T17:02:05Z</time>
      </trkpt>
      <trkpt lat="48.85208" lon="2.16456">
        <ele>185</ele>
        <time>2012-09-30T17:02:19Z</time>
      </trkpt>
      <trkpt lat="48.85209" lon="2.16486">
        <ele>188.5</ele>
        <time>2012-09-30T17:02:36Z</time>
      </trkpt>
      <trkpt lat="48.85216" lon="2.16521">
        <ele>189.5</ele>
        <time>2012-09-30T17:02:50Z</time>
      </trkpt>
      <trkpt lat="48.85222" lon="2.16554">
        <ele>191.5</ele>
        <time>2012-09-30T17:03:00Z</time>
      </trkpt>
      <trkpt lat="48.85227" lon="2.16586">
        <ele>191.5</ele>
        <time>2012-09-30T17:03:08Z</time>
      </trkpt>
      <trkpt lat="48.85232" lon="2.16612">
        <ele>193.6</ele>
        <time>2012-09-30T17:03:19Z</time>
      </trkpt>
      <trkpt lat="48.85242" lon="2.16645">
        <ele>195.3</ele>
        <time>2012-09-30T17:03:30Z</time>
      </trkpt>
      <trkpt lat="48.85248" lon="2.16673">
        <ele>196.2</ele>
        <time>2012-09-30T17:03:39Z</time>
      </trkpt>
      <trkpt lat="48.85249" lon="2.16703">
        <ele>196</ele>
        <time>2012-09-30T17:03:48Z</time>
      </trkpt>
      <trkpt lat="48.85253" lon="2.16723">
        <ele>195.6</ele>
        <time>2012-09-30T17:03:54Z</time>
      </trkpt>
      <trkpt lat="48.8526" lon="2.16768">
        <ele>195.8</ele>
        <time>2012-09-30T17:04:03Z</time>
      </trkpt>
      <trkpt lat="48.85263" lon="2.16799">
        <ele>195.9</ele>
        <time>2012-09-30T17:04:12Z</time>
      </trkpt>
      <trkpt lat="48.85259" lon="2.16829">
        <ele>196.1</ele>
        <time>2012-09-30T17:04:21Z</time>
      </trkpt>
      <trkpt lat="48.85242" lon="2.16842">
        <ele>197</ele>
        <time>2012-09-30T17:04:30Z</time>
      </trkpt>
      <trkpt lat="48.85221" lon="2.16855">
        <ele>198</ele>
        <time>2012-09-30T17:04:39Z</time>
      </trkpt>
      <trkpt lat="48.85199" lon="2.16868">
        <ele>199</ele>
        <time>2012-09-30T17:04:49Z</time>
      </trkpt>
      <trkpt lat="48.85189" lon="2.16873">
        <ele>199.6</ele>
        <time>2012-09-30T17:04:54Z</time>
      </trkpt>
      <trkpt lat="48.85167" lon="2.1688">
        <ele>201.5</ele>
        <time>2012-09-30T17:05:04Z</time>
      </trkpt>
      <trkpt lat="48.85141" lon="2.16885">
        <ele>203.2</ele>
        <time>2012-09-30T17:05:18Z</time>
      </trkpt>
      <trkpt lat="48.85107" lon="2.16898">
        <ele>204.9</ele>
        <time>2012-09-30T17:05:34Z</time>
      </trkpt>
      <trkpt lat="48.85084" lon="2.16907">
        <ele>205</ele>
        <time>2012-09-30T17:05:43Z</time>
      </trkpt>
      <trkpt lat="48.85064" lon="2.16913">
        <ele>205.4</ele>
        <time>2012-09-30T17:05:52Z</time>
      </trkpt>
      <trkpt lat="48.85044" lon="2.16921">
        <ele>206.1</ele>
        <time>2012-09-30T17:06:00Z</time>
      </trkpt>
      <trkpt lat="48.85024" lon="2.16931">
        <ele>204.9</ele>
        <time>2012-09-30T17:06:08Z</time>
      </trkpt>
      <trkpt lat="48.85014" lon="2.16948">
        <ele>205.2</ele>
        <time>2012-09-30T17:06:18Z</time>
      </trkpt>
      <trkpt lat="48.85022" lon="2.1698">
        <ele>206.4</ele>
        <time>2012-09-30T17:06:30Z</time>
      </trkpt>
      <trkpt lat="48.85025" lon="2.17003">
        <ele>206.9</ele>
        <time>2012-09-30T17:06:36Z</time>
      </trkpt>
      <trkpt lat="48.85033" lon="2.17043">
        <ele>205.5</ele>
        <time>2012-09-30T17:06:47Z</time>
      </trkpt>
      <trkpt lat="48.8504" lon="2.17075">
        <ele>205.4</ele>
        <time>2012-09-30T17:06:55Z</time>
      </trkpt>
      <trkpt lat="48.85043" lon="2.17117">
        <ele>203.8</ele>
        <time>2012-09-30T17:07:05Z</time>
      </trkpt>
      <trkpt lat="48.85044" lon="2.17136">
        <ele>204.1</ele>
        <time>2012-09-30T17:07:10Z</time>
      </trkpt>
      <trkpt lat="48.85035" lon="2.17154">
        <ele>204.6</ele>
        <time>2012-09-30T17:07:16Z</time>
      </trkpt>
      <trkpt lat="48.8502" lon="2.17175">
        <ele>205.4</ele>
        <time>2012-09-30T17:07:27Z</time>
      </trkpt>
      <trkpt lat="48.84999" lon="2.17205">
        <ele>206.2</ele>
        <time>2012-09-30T17:07:40Z</time>
      </trkpt>
      <trkpt lat="48.84982" lon="2.17236">
        <ele>207.6</ele>
        <time>2012-09-30T17:07:50Z</time>
      </trkpt>
      <trkpt lat="48.8497" lon="2.17256">
        <ele>209</ele>
        <time>2012-09-30T17:07:59Z</time>
      </trkpt>
      <trkpt lat="48.84958" lon="2.17276">
        <ele>209.8</ele>
        <time>2012-09-30T17:08:07Z</time>
      </trkpt>
      <trkpt lat="48.84956" lon="2.17297">
        <ele>209.3</ele>
        <time>2012-09-30T17:08:14Z</time>
      </trkpt>
      <trkpt lat="48.84969" lon="2.17328">
        <ele>209.8</ele>
        <time>2012-09-30T17:08:24Z</time>
      </trkpt>
      <trkpt lat="48.84981" lon="2.17347">
        <ele>209.8</ele>
        <time>2012-09-30T17:08:33Z</time>
      </trkpt>
      <trkpt lat="48.8499" lon="2.17363">
        <ele>211.4</ele>
        <time>2012-09-30T17:08:40Z</time>
      </trkpt>
      <trkpt lat="48.85002" lon="2.17378">
        <ele>212.3</ele>
        <time>2012-09-30T17:08:47Z</time>
      </trkpt>
      <trkpt lat="48.85024" lon="2.17397">
        <ele>212.9</ele>
        <time>2012-09-30T17:08:57Z</time>
      </trkpt>
      <trkpt lat="48.85042" lon="2.17412">
        <ele>213.2</ele>
        <time>2012-09-30T17:09:05Z</time>
      </trkpt>
      <trkpt lat="48.85068" lon="2.17421">
        <ele>211.4</ele>
        <time>2012-09-30T17:09:15Z</time>
      </trkpt>
      <trkpt lat="48.85098" lon="2.17436">
        <ele>212.2</ele>
        <time>2012-09-30T17:09:26Z</time>
      </trkpt>
      <trkpt lat="48.85123" lon="2.17446">
        <ele>213.9</ele>
        <time>2012-09-30T17:09:36Z</time>
      </trkpt>
      <trkpt lat="48.85141" lon="2.17446">
        <ele>214.7</ele>
        <time>2012-09-30T17:09:44Z</time>
      </trkpt>
      <trkpt lat="48.8517" lon="2.17453">
        <ele>214.3</ele>
        <time>2012-09-30T17:09:55Z</time>
      </trkpt>
      <trkpt lat="48.85196" lon="2.17458">
        <ele>215.2</ele>
        <time>2012-09-30T17:10:04Z</time>
      </trkpt>
      <trkpt lat="48.8522" lon="2.1745">
        <ele>215.5</ele>
        <time>2012-09-30T17:10:13Z</time>
      </trkpt>
      <trkpt lat="48.85231" lon="2.17445">
        <ele>215.7</ele>
        <time>2012-09-30T17:10:18Z</time>
      </trkpt>
      <trkpt lat="48.85249" lon="2.17437">
        <ele>215.8</ele>
        <time>2012-09-30T17:10:25Z</time>
      </trkpt>
      <trkpt lat="48.85269" lon="2.17421">
        <ele>214.8</ele>
        <time>2012-09-30T17:10:34Z</time>
      </trkpt>
      <trkpt lat="48.85281" lon="2.17417">
        <ele>215.3</ele>
        <time>2012-09-30T17:10:40Z</time>
      </trkpt>
      <trkpt lat="48.85291" lon="2.17411">
        <ele>215.7</ele>
        <time>2012-09-30T17:10:45Z</time>
      </trkpt>
      <trkpt lat="48.85303" lon="2.17401">
        <ele>216.2</ele>
        <time>2012-09-30T17:10:50Z</time>
      </trkpt>
      <trkpt lat="48.85326" lon="2.17382">
        <ele>217</ele>
        <time>2012-09-30T17:11:00Z</time>
      </trkpt>
      <trkpt lat="48.85347" lon="2.17347">
        <ele>216.1</ele>
        <time>2012-09-30T17:11:11Z</time>
      </trkpt>
      <trkpt lat="48.85363" lon="2.17311">
        <ele>215.9</ele>
        <time>2012-09-30T17:11:22Z</time>
      </trkpt>
      <trkpt lat="48.85384" lon="2.17276">
        <ele>214.2</ele>
        <time>2012-09-30T17:11:32Z</time>
      </trkpt>
      <trkpt lat="48.85397" lon="2.17265">
        <ele>214.6</ele>
        <time>2012-09-30T17:11:38Z</time>
      </trkpt>
      <trkpt lat="48.85423" lon="2.17243">
        <ele>214.8</ele>
        <time>2012-09-30T17:11:48Z</time>
      </trkpt>
      <trkpt lat="48.85444" lon="2.17225">
        <ele>214.5</ele>
        <time>2012-09-30T17:11:57Z</time>
      </trkpt>
      <trkpt lat="48.85473" lon="2.17205">
        <ele>215.3</ele>
        <time>2012-09-30T17:12:08Z</time>
      </trkpt>
      <trkpt lat="48.85493" lon="2.17196">
        <ele>215.4</ele>
        <time>2012-09-30T17:12:16Z</time>
      </trkpt>
      <trkpt lat="48.85506" lon="2.17193">
        <ele>215.4</ele>
        <time>2012-09-30T17:12:21Z</time>
      </trkpt>
      <trkpt lat="48.85516" lon="2.17187">
        <ele>215.2</ele>
        <time>2012-09-30T17:12:25Z</time>
      </trkpt>
      <trkpt lat="48.85527" lon="2.17182">
        <ele>214.9</ele>
        <time>2012-09-30T17:12:29Z</time>
      </trkpt>
      <trkpt lat="48.85537" lon="2.17173">
        <ele>214.7</ele>
        <time>2012-09-30T17:12:33Z</time>
      </trkpt>
      <trkpt lat="48.85554" lon="2.17166">
        <ele>214.7</ele>
        <time>2012-09-30T17:12:39Z</time>
      </trkpt>
      <trkpt lat="48.85568" lon="2.17159">
        <ele>214.6</ele>
        <time>2012-09-30T17:12:44Z</time>
      </trkpt>
      <trkpt lat="48.85591" lon="2.17142">
        <ele>214.1</ele>
        <time>2012-09-30T17:12:53Z</time>
      </trkpt>
      <trkpt lat="48.85607" lon="2.17138">
        <ele>214</ele>
        <time>2012-09-30T17:12:59Z</time>
      </trkpt>
      <trkpt lat="48.85626" lon="2.17148">
        <ele>214</ele>
        <time>2012-09-30T17:13:07Z</time>
      </trkpt>
      <trkpt lat="48.85642" lon="2.17156">
        <ele>213.2</ele>
        <time>2012-09-30T17:13:14Z</time>
      </trkpt>
      <trkpt lat="48.85662" lon="2.17144">
        <ele>212.2</ele>
        <time>2012-09-30T17:13:25Z</time>
      </trkpt>
      <trkpt lat="48.85685" lon="2.17116">
        <ele>212.2</ele>
        <time>2012-09-30T17:13:36Z</time>
      </trkpt>
      <trkpt lat="48.85705" lon="2.17098">
        <ele>211.1</ele>
        <time>2012-09-30T17:13:44Z</time>
      </trkpt>
      <trkpt lat="48.85724" lon="2.1708">
        <ele>210.4</ele>
        <time>2012-09-30T17:13:53Z</time>
      </trkpt>
      <trkpt lat="48.85738" lon="2.17079">
        <ele>210.1</ele>
        <time>2012-09-30T17:13:58Z</time>
      </trkpt>
      <trkpt lat="48.85761" lon="2.17064">
        <ele>208.3</ele>
        <time>2012-09-30T17:14:07Z</time>
      </trkpt>
      <trkpt lat="48.85778" lon="2.17049">
        <ele>207.7</ele>
        <time>2012-09-30T17:14:14Z</time>
      </trkpt>
      <trkpt lat="48.85798" lon="2.17033">
        <ele>206.1</ele>
        <time>2012-09-30T17:14:22Z</time>
      </trkpt>
      <trkpt lat="48.8581" lon="2.17024">
        <ele>205.6</ele>
        <time>2012-09-30T17:14:26Z</time>
      </trkpt>
      <trkpt lat="48.85833" lon="2.17002">
        <ele>204.9</ele>
        <time>2012-09-30T17:14:35Z</time>
      </trkpt>
      <trkpt lat="48.85852" lon="2.16978">
        <ele>204.5</ele>
        <time>2012-09-30T17:14:44Z</time>
      </trkpt>
      <trkpt lat="48.85876" lon="2.16955">
        <ele>203.4</ele>
        <time>2012-09-30T17:14:54Z</time>
      </trkpt>
      <trkpt lat="48.85889" lon="2.16943">
        <ele>203.1</ele>
        <time>2012-09-30T17:14:59Z</time>
      </trkpt>
      <trkpt lat="48.85912" lon="2.16938">
        <ele>201.8</ele>
        <time>2012-09-30T17:15:07Z</time>
      </trkpt>
      <trkpt lat="48.85932" lon="2.16936">
        <ele>199.9</ele>
        <time>2012-09-30T17:15:14Z</time>
      </trkpt>
      <trkpt lat="48.85957" lon="2.16938">
        <ele>198</ele>
        <time>2012-09-30T17:15:24Z</time>
      </trkpt>
      <trkpt lat="48.85981" lon="2.16966">
        <ele>194.2</ele>
        <time>2012-09-30T17:15:33Z</time>
      </trkpt>
      <trkpt lat="48.85995" lon="2.16988">
        <ele>192</ele>
        <time>2012-09-30T17:15:40Z</time>
      </trkpt>
      <trkpt lat="48.86012" lon="2.17019">
        <ele>188.4</ele>
        <time>2012-09-30T17:15:48Z</time>
      </trkpt>
      <trkpt lat="48.8603" lon="2.17035">
        <ele>186.5</ele>
        <time>2012-09-30T17:15:56Z</time>
      </trkpt>
      <trkpt lat="48.86057" lon="2.1705">
        <ele>184.4</ele>
        <time>2012-09-30T17:16:05Z</time>
      </trkpt>
      <trkpt lat="48.8607" lon="2.17055">
        <ele>183.9</ele>
        <time>2012-09-30T17:16:10Z</time>
      </trkpt>
      <trkpt lat="48.86093" lon="2.1707">
        <ele>181</ele>
        <time>2012-09-30T17:16:19Z</time>
      </trkpt>
      <trkpt lat="48.86117" lon="2.17083">
        <ele>177.2</ele>
        <time>2012-09-30T17:16:28Z</time>
      </trkpt>
      <trkpt lat="48.86135" lon="2.17099">
        <ele>172.5</ele>
        <time>2012-09-30T17:16:33Z</time>
      </trkpt>
      <trkpt lat="48.86142" lon="2.17106">
        <ele>171.7</ele>
        <time>2012-09-30T17:16:36Z</time>
      </trkpt>
      <trkpt lat="48.86168" lon="2.17113">
        <ele>169.8</ele>
        <time>2012-09-30T17:16:45Z</time>
      </trkpt>
      <trkpt lat="48.862" lon="2.17107">
        <ele>164</ele>
        <time>2012-09-30T17:16:55Z</time>
      </trkpt>
      <trkpt lat="48.86222" lon="2.17099">
        <ele>159.9</ele>
        <time>2012-09-30T17:17:02Z</time>
      </trkpt>
      <trkpt lat="48.86241" lon="2.17102">
        <ele>156.1</ele>
        <time>2012-09-30T17:17:09Z</time>
      </trkpt>
      <trkpt lat="48.86263" lon="2.17102">
        <ele>153</ele>
        <time>2012-09-30T17:17:18Z</time>
      </trkpt>
      <trkpt lat="48.86286" lon="2.17106">
        <ele>151.3</ele>
        <time>2012-09-30T17:17:27Z</time>
      </trkpt>
      <trkpt lat="48.86309" lon="2.17125">
        <ele>150.1</ele>
        <time>2012-09-30T17:17:36Z</time>
      </trkpt>
      <trkpt lat="48.8633" lon="2.17139">
        <ele>147.6</ele>
        <time>2012-09-30T17:17:45Z</time>
      </trkpt>
      <trkpt lat="48.86351" lon="2.17159">
        <ele>145.6</ele>
        <time>2012-09-30T17:17:54Z</time>
      </trkpt>
      <trkpt lat="48.86377" lon="2.1718">
        <ele>144.4</ele>
        <time>2012-09-30T17:18:03Z</time>
      </trkpt>
      <trkpt lat="48.86388" lon="2.17192">
        <ele>143.6</ele>
        <time>2012-09-30T17:18:08Z</time>
      </trkpt>
      <trkpt lat="48.86411" lon="2.17213">
        <ele>141.5</ele>
        <time>2012-09-30T17:18:18Z</time>
      </trkpt>
      <trkpt lat="48.86433" lon="2.1723">
        <ele>141.2</ele>
        <time>2012-09-30T17:18:27Z</time>
      </trkpt>
      <trkpt lat="48.86444" lon="2.17241">
        <ele>140.9</ele>
        <time>2012-09-30T17:18:32Z</time>
      </trkpt>
      <trkpt lat="48.86457" lon="2.17255">
        <ele>140.6</ele>
        <time>2012-09-30T17:18:38Z</time>
      </trkpt>
      <trkpt lat="48.86479" lon="2.17274">
        <ele>139.7</ele>
        <time>2012-09-30T17:18:47Z</time>
      </trkpt>
      <trkpt lat="48.86501" lon="2.17296">
        <ele>139.6</ele>
        <time>2012-09-30T17:18:57Z</time>
      </trkpt>
      <trkpt lat="48.86527" lon="2.17319">
        <ele>139.8</ele>
        <time>2012-09-30T17:19:07Z</time>
      </trkpt>
      <trkpt lat="48.86548" lon="2.17326">
        <ele>135</ele>
        <time>2012-09-30T17:19:14Z</time>
      </trkpt>
      <trkpt lat="48.86571" lon="2.17346">
        <ele>133.7</ele>
        <time>2012-09-30T17:19:23Z</time>
      </trkpt>
      <trkpt lat="48.86596" lon="2.17363">
        <ele>133.3</ele>
        <time>2012-09-30T17:19:33Z</time>
      </trkpt>
      <trkpt lat="48.86615" lon="2.17383">
        <ele>131.7</ele>
        <time>2012-09-30T17:19:40Z</time>
      </trkpt>
      <trkpt lat="48.86631" lon="2.17397">
        <ele>131.7</ele>
        <time>2012-09-30T17:19:46Z</time>
      </trkpt>
      <trkpt lat="48.86643" lon="2.17409">
        <ele>131</ele>
        <time>2012-09-30T17:19:52Z</time>
      </trkpt>
      <trkpt lat="48.86656" lon="2.17421">
        <ele>130.9</ele>
        <time>2012-09-30T17:19:57Z</time>
      </trkpt>
      <trkpt lat="48.86675" lon="2.17439">
        <ele>131.3</ele>
        <time>2012-09-30T17:20:05Z</time>
      </trkpt>
      <trkpt lat="48.86692" lon="2.17461">
        <ele>131.6</ele>
        <time>2012-09-30T17:20:13Z</time>
      </trkpt>
      <trkpt lat="48.86708" lon="2.17479">
        <ele>131.9</ele>
        <time>2012-09-30T17:20:21Z</time>
      </trkpt>
      <trkpt lat="48.86731" lon="2.17507">
        <ele>131.5</ele>
        <time>2012-09-30T17:20:32Z</time>
      </trkpt>
      <trkpt lat="48.86752" lon="2.17528">
        <ele>130.6</ele>
        <time>2012-09-30T17:20:41Z</time>
      </trkpt>
      <trkpt lat="48.86766" lon="2.17542">
        <ele>131</ele>
        <time>2012-09-30T17:20:47Z</time>
      </trkpt>
      <trkpt lat="48.86789" lon="2.17525">
        <ele>130.9</ele>
        <time>2012-09-30T17:20:57Z</time>
      </trkpt>
      <trkpt lat="48.86807" lon="2.17502">
        <ele>129</ele>
        <time>2012-09-30T17:21:06Z</time>
      </trkpt>
      <trkpt lat="48.86827" lon="2.17472">
        <ele>127.4</ele>
        <time>2012-09-30T17:21:17Z</time>
      </trkpt>
      <trkpt lat="48.86846" lon="2.17449">
        <ele>124.7</ele>
        <time>2012-09-30T17:21:25Z</time>
      </trkpt>
      <trkpt lat="48.8687" lon="2.17418">
        <ele>120.4</ele>
        <time>2012-09-30T17:21:35Z</time>
      </trkpt>
      <trkpt lat="48.86882" lon="2.17399">
        <ele>120.2</ele>
        <time>2012-09-30T17:21:42Z</time>
      </trkpt>
      <trkpt lat="48.86896" lon="2.17368">
        <ele>120</ele>
        <time>2012-09-30T17:21:52Z</time>
      </trkpt>
      <trkpt lat="48.86914" lon="2.17323">
        <ele>117.5</ele>
        <time>2012-09-30T17:22:02Z</time>
      </trkpt>
      <trkpt lat="48.86926" lon="2.17303">
        <ele>117.1</ele>
        <time>2012-09-30T17:22:08Z</time>
      </trkpt>
      <trkpt lat="48.86928" lon="2.17301">
        <ele>117.3</ele>
        <time>2012-09-30T17:22:09Z</time>
      </trkpt>
      <trkpt lat="48.86932" lon="2.17278">
        <ele>117</ele>
        <time>2012-09-30T17:22:24Z</time>
      </trkpt>
      <trkpt lat="48.86933" lon="2.1724">
        <ele>115.8</ele>
        <time>2012-09-30T17:22:33Z</time>
      </trkpt>
      <trkpt lat="48.86932" lon="2.17207">
        <ele>115.3</ele>
        <time>2012-09-30T17:22:42Z</time>
      </trkpt>
      <trkpt lat="48.86936" lon="2.17182">
        <ele>114.1</ele>
        <time>2012-09-30T17:22:48Z</time>
      </trkpt>
      <trkpt lat="48.86945" lon="2.17147">
        <ele>113.1</ele>
        <time>2012-09-30T17:22:57Z</time>
      </trkpt>
      <trkpt lat="48.8695" lon="2.1711">
        <ele>112.3</ele>
        <time>2012-09-30T17:23:06Z</time>
      </trkpt>
      <trkpt lat="48.86954" lon="2.1707">
        <ele>110</ele>
        <time>2012-09-30T17:23:15Z</time>
      </trkpt>
      <trkpt lat="48.86954" lon="2.17048">
        <ele>110.1</ele>
        <time>2012-09-30T17:23:20Z</time>
      </trkpt>
      <trkpt lat="48.8696" lon="2.17005">
        <ele>107.2</ele>
        <time>2012-09-30T17:23:29Z</time>
      </trkpt>
      <trkpt lat="48.86975" lon="2.16984">
        <ele>104.3</ele>
        <time>2012-09-30T17:23:35Z</time>
      </trkpt>
      <trkpt lat="48.86988" lon="2.16967">
        <ele>102.3</ele>
        <time>2012-09-30T17:23:40Z</time>
      </trkpt>
      <trkpt lat="48.86999" lon="2.16956">
        <ele>100.1</ele>
        <time>2012-09-30T17:23:45Z</time>
      </trkpt>
      <trkpt lat="48.8701" lon="2.16945">
        <ele>99.2</ele>
        <time>2012-09-30T17:23:51Z</time>
      </trkpt>
      <trkpt lat="48.87036" lon="2.16918">
        <ele>96.5</ele>
        <time>2012-09-30T17:24:02Z</time>
      </trkpt>
      <trkpt lat="48.87056" lon="2.16905">
        <ele>95.3</ele>
        <time>2012-09-30T17:24:11Z</time>
      </trkpt>
      <trkpt lat="48.87073" lon="2.16913">
        <ele>94.9</ele>
        <time>2012-09-30T17:24:16Z</time>
      </trkpt>
      <trkpt lat="48.87098" lon="2.16918">
        <ele>94.5</ele>
        <time>2012-09-30T17:24:24Z</time>
      </trkpt>
      <trkpt lat="48.87111" lon="2.16916">
        <ele>93.9</ele>
        <time>2012-09-30T17:24:30Z</time>
      </trkpt>
      <trkpt lat="48.87135" lon="2.1692">
        <ele>93.3</ele>
        <time>2012-09-30T17:24:38Z</time>
      </trkpt>
      <trkpt lat="48.87159" lon="2.16927">
        <ele>92.6</ele>
        <time>2012-09-30T17:24:47Z</time>
      </trkpt>
      <trkpt lat="48.87174" lon="2.16926">
        <ele>91.1</ele>
        <time>2012-09-30T17:24:52Z</time>
      </trkpt>
      <trkpt lat="48.87198" lon="2.16927">
        <ele>89.8</ele>
        <time>2012-09-30T17:25:01Z</time>
      </trkpt>
      <trkpt lat="48.87227" lon="2.16923">
        <ele>89.3</ele>
        <time>2012-09-30T17:25:11Z</time>
      </trkpt>
      <trkpt lat="48.87244" lon="2.16915">
        <ele>88.4</ele>
        <time>2012-09-30T17:25:18Z</time>
      </trkpt>
      <trkpt lat="48.87267" lon="2.16911">
        <ele>87.8</ele>
        <time>2012-09-30T17:25:27Z</time>
      </trkpt>
      <trkpt lat="48.8729" lon="2.169">
        <ele>87</ele>
        <time>2012-09-30T17:25:36Z</time>
      </trkpt>
      <trkpt lat="48.87322" lon="2.16888">
        <ele>86.4</ele>
        <time>2012-09-30T17:25:47Z</time>
      </trkpt>
      <trkpt lat="48.87343" lon="2.16885">
        <ele>86.3</ele>
        <time>2012-09-30T17:25:55Z</time>
      </trkpt>
      <trkpt lat="48.87364" lon="2.16879">
        <ele>87</ele>
        <time>2012-09-30T17:26:05Z</time>
      </trkpt>
      <trkpt lat="48.87386" lon="2.16873">
        <ele>86.7</ele>
        <time>2012-09-30T17:26:16Z</time>
      </trkpt>
      <trkpt lat="48.87417" lon="2.16862">
        <ele>85.9</ele>
        <time>2012-09-30T17:26:28Z</time>
      </trkpt>
      <trkpt lat="48.8743" lon="2.16861">
        <ele>85.6</ele>
        <time>2012-09-30T17:26:33Z</time>
      </trkpt>
      <trkpt lat="48.87457" lon="2.16855">
        <ele>85.9</ele>
        <time>2012-09-30T17:26:42Z</time>
      </trkpt>
      <trkpt lat="48.87478" lon="2.16842">
        <ele>85.5</ele>
        <time>2012-09-30T17:26:50Z</time>
      </trkpt>
      <trkpt lat="48.8749" lon="2.16806">
        <ele>78.4</ele>
        <time>2012-09-30T17:27:01Z</time>
      </trkpt>
      <trkpt lat="48.8748" lon="2.16792">
        <ele>77.9</ele>
        <time>2012-09-30T17:27:06Z</time>
      </trkpt>
      <trkpt lat="48.87469" lon="2.16767">
        <ele>76.2</ele>
        <time>2012-09-30T17:27:15Z</time>
      </trkpt>
      <trkpt lat="48.87448" lon="2.16726">
        <ele>73.5</ele>
        <time>2012-09-30T17:27:29Z</time>
      </trkpt>
      <trkpt lat="48.87445" lon="2.16706">
        <ele>73.7</ele>
        <time>2012-09-30T17:27:35Z</time>
      </trkpt>
      <trkpt lat="48.87451" lon="2.16687">
        <ele>74.2</ele>
        <time>2012-09-30T17:27:41Z</time>
      </trkpt>
      <trkpt lat="48.8744" lon="2.16669">
        <ele>74.6</ele>
        <time>2012-09-30T17:27:46Z</time>
      </trkpt>
      <trkpt lat="48.87426" lon="2.16646">
        <ele>75.1</ele>
        <time>2012-09-30T17:27:54Z</time>
      </trkpt>
      <trkpt lat="48.87417" lon="2.16626">
        <ele>76.2</ele>
        <time>2012-09-30T17:27:59Z</time>
      </trkpt>
      <trkpt lat="48.87403" lon="2.16599">
        <ele>76.9</ele>
        <time>2012-09-30T17:28:07Z</time>
      </trkpt>
      <trkpt lat="48.87391" lon="2.16571">
        <ele>77</ele>
        <time>2012-09-30T17:28:14Z</time>
      </trkpt>
      <trkpt lat="48.87377" lon="2.16541">
        <ele>78.4</ele>
        <time>2012-09-30T17:28:23Z</time>
      </trkpt>
      <trkpt lat="48.87364" lon="2.16506">
        <ele>77.5</ele>
        <time>2012-09-30T17:28:33Z</time>
      </trkpt>
      <trkpt lat="48.87356" lon="2.16492">
        <ele>78.3</ele>
        <time>2012-09-30T17:28:38Z</time>
      </trkpt>
      <trkpt lat="48.87338" lon="2.16466">
        <ele>78.6</ele>
        <time>2012-09-30T17:28:47Z</time>
      </trkpt>
      <trkpt lat="48.87324" lon="2.1643">
        <ele>78.5</ele>
        <time>2012-09-30T17:28:58Z</time>
      </trkpt>
      <trkpt lat="48.87328" lon="2.16406">
        <ele>75.6</ele>
        <time>2012-09-30T17:29:03Z</time>
      </trkpt>
      <trkpt lat="48.87327" lon="2.16378">
        <ele>76.3</ele>
        <time>2012-09-30T17:29:09Z</time>
      </trkpt>
      <trkpt lat="48.87323" lon="2.16353">
        <ele>76.9</ele>
        <time>2012-09-30T17:29:17Z</time>
      </trkpt>
      <trkpt lat="48.87348" lon="2.16313">
        <ele>76.8</ele>
        <time>2012-09-30T17:29:31Z</time>
      </trkpt>
      <trkpt lat="48.87348" lon="2.16313">
        <ele>27.9</ele>
        <time>2012-09-30T17:29:38Z</time>
      </trkpt>
      <trkpt lat="48.87348" lon="2.16313">
        <ele>27.9</ele>
        <time>2012-09-30T17:37:28Z</time>
      </trkpt>
    </trkseg>
  </trk>
</gpx>